sensor_id;sensor_type;location;lat;lon;timestamp;temperature;humidity
16491;DHT22;8356;51.214;3.270;2023-02-04T00:00:50;307.90;2304.00
16491;DHT22;8356;51.214;3.270;2023-02-04T00:03:17;307.90;2304.00
16491;DHT22;8356;51.214;3.270;2023-02-04T00:05:43;307.90;2304.00
16491;DHT22;8356;51.214;3.270;2023-02-04T00:08:09;307.80;2304.00
16491;DHT22;8356;51.214;3.270;2023-02-04T00:10:35;307.90;2304.00
16491;DHT22;8356;51.214;3.270;2023-02-04T00:13:02;307.80;2304.00
16491;DHT22;8356;51.214;3.270;2023-02-04T00:15:28;307.60;2304.00
16491;DHT22;8356;51.214;3.270;2023-02-04T00:17:54;307.90;2304.00
16491;DHT22;8356;51.214;3.270;2023-02-04T00:20:19;307.90;2304.00
16491;DHT22;8356;51.214;3.270;2023-02-04T00:22:45;307.90;2304.00
16491;DHT22;8356;51.214;3.270;2023-02-04T00:25:11;307.90;2304.00
16491;DHT22;8356;51.214;3.270;2023-02-04T00:27:37;307.80;2304.00
16491;DHT22;8356;51.214;3.270;2023-02-04T00:30:04;307.80;2304.00
16491;DHT22;8356;51.214;3.270;2023-02-04T00:32:29;307.70;2304.00
16491;DHT22;8356;51.214;3.270;2023-02-04T00:34:55;307.60;2304.00
16491;DHT22;8356;51.214;3.270;2023-02-04T00:37:21;307.60;2304.00
16491;DHT22;8356;51.214;3.270;2023-02-04T00:39:46;307.60;2304.00
16491;DHT22;8356;51.214;3.270;2023-02-04T00:42:12;307.60;2304.00
16491;DHT22;8356;51.214;3.270;2023-02-04T00:44:38;307.60;2304.00
16491;DHT22;8356;51.214;3.270;2023-02-04T00:47:03;307.60;2304.00
16491;DHT22;8356;51.214;3.270;2023-02-04T00:49:29;307.60;2304.00
16491;DHT22;8356;51.214;3.270;2023-02-04T00:51:55;307.60;2304.00
16491;DHT22;8356;51.214;3.270;2023-02-04T00:54:21;307.70;2304.00
16491;DHT22;8356;51.214;3.270;2023-02-04T00:56:46;307.60;2304.00
16491;DHT22;8356;51.214;3.270;2023-02-04T00:59:12;307.60;2304.00
16491;DHT22;8356;51.214;3.270;2023-02-04T01:01:38;307.60;2304.00
16491;DHT22;8356;51.214;3.270;2023-02-04T01:04:04;307.80;2304.00
16491;DHT22;8356;51.214;3.270;2023-02-04T01:06:30;307.70;2304.00
16491;DHT22;8356;51.214;3.270;2023-02-04T01:08:56;307.70;2304.00
16491;DHT22;8356;51.214;3.270;2023-02-04T01:11:22;307.70;2304.00
16491;DHT22;8356;51.214;3.270;2023-02-04T01:13:47;307.70;2304.00
16491;DHT22;8356;51.214;3.270;2023-02-04T01:16:13;307.70;2304.00
16491;DHT22;8356;51.214;3.270;2023-02-04T01:18:39;307.70;2304.00
16491;DHT22;8356;51.214;3.270;2023-02-04T01:21:04;307.70;2304.00
16491;DHT22;8356;51.214;3.270;2023-02-04T01:23:31;307.70;2304.00
16491;DHT22;8356;51.214;3.270;2023-02-04T01:25:57;307.80;2304.00
16491;DHT22;8356;51.214;3.270;2023-02-04T01:28:22;307.70;2304.00
16491;DHT22;8356;51.214;3.270;2023-02-04T01:30:48;307.70;2304.00
16491;DHT22;8356;51.214;3.270;2023-02-04T01:33:14;307.60;2304.00
16491;DHT22;8356;51.214;3.270;2023-02-04T01:35:39;307.60;2304.00
16491;DHT22;8356;51.214;3.270;2023-02-04T01:38:05;307.60;2304.00
16491;DHT22;8356;51.214;3.270;2023-02-04T01:40:31;307.60;2304.00
16491;DHT22;8356;51.214;3.270;2023-02-04T01:42:56;307.60;2304.00
16491;DHT22;8356;51.214;3.270;2023-02-04T01:45:22;307.60;2304.00
16491;DHT22;8356;51.214;3.270;2023-02-04T01:47:48;307.60;2304.00
16491;DHT22;8356;51.214;3.270;2023-02-04T01:50:16;307.70;2304.00
16491;DHT22;8356;51.214;3.270;2023-02-04T01:52:43;307.70;2304.00
16491;DHT22;8356;51.214;3.270;2023-02-04T01:55:18;307.60;2304.00
16491;DHT22;8356;51.214;3.270;2023-02-04T01:57:44;307.70;2304.00
16491;DHT22;8356;51.214;3.270;2023-02-04T02:00:21;307.60;2304.00
16491;DHT22;8356;51.214;3.270;2023-02-04T02:02:49;307.70;2304.00
16491;DHT22;8356;51.214;3.270;2023-02-04T02:05:22;307.80;2304.00
16491;DHT22;8356;51.214;3.270;2023-02-04T02:07:50;307.80;2304.00
16491;DHT22;8356;51.214;3.270;2023-02-04T02:10:17;307.70;2304.00
16491;DHT22;8356;51.214;3.270;2023-02-04T02:12:45;308.00;2304.00
16491;DHT22;8356;51.214;3.270;2023-02-04T02:15:12;307.80;2304.00
16491;DHT22;8356;51.214;3.270;2023-02-04T02:17:38;333.20;2329.60
16491;DHT22;8356;51.214;3.270;2023-02-04T02:20:11;307.80;2304.00
16491;DHT22;8356;51.214;3.270;2023-02-04T02:25:38;307.80;2304.00
16491;DHT22;8356;51.214;3.270;2023-02-04T02:28:08;307.80;2304.00
16491;DHT22;8356;51.214;3.270;2023-02-04T02:30:34;307.80;2304.00
16491;DHT22;8356;51.214;3.270;2023-02-04T02:33:00;307.70;2304.00
16491;DHT22;8356;51.214;3.270;2023-02-04T02:35:26;307.70;2304.00
16491;DHT22;8356;51.214;3.270;2023-02-04T02:37:51;307.60;2304.00
16491;DHT22;8356;51.214;3.270;2023-02-04T02:40:17;307.60;2304.00
16491;DHT22;8356;51.214;3.270;2023-02-04T02:42:47;307.60;2304.00
16491;DHT22;8356;51.214;3.270;2023-02-04T02:45:27;307.70;2304.00
16491;DHT22;8356;51.214;3.270;2023-02-04T02:47:55;307.60;2304.00
16491;DHT22;8356;51.214;3.270;2023-02-04T02:50:25;307.60;2304.00
16491;DHT22;8356;51.214;3.270;2023-02-04T02:52:52;307.60;2304.00
16491;DHT22;8356;51.214;3.270;2023-02-04T02:55:20;307.50;2304.00
16491;DHT22;8356;51.214;3.270;2023-02-04T02:57:47;307.50;2304.00
16491;DHT22;8356;51.214;3.270;2023-02-04T03:00:25;307.60;2304.00
16491;DHT22;8356;51.214;3.270;2023-02-04T03:03:07;307.50;2304.00
16491;DHT22;8356;51.214;3.270;2023-02-04T03:05:39;307.40;2304.00
16491;DHT22;8356;51.214;3.270;2023-02-04T03:08:06;307.50;2304.00
16491;DHT22;8356;51.214;3.270;2023-02-04T03:10:32;307.50;2304.00
16491;DHT22;8356;51.214;3.270;2023-02-04T03:12:58;307.50;2304.00
16491;DHT22;8356;51.214;3.270;2023-02-04T03:15:24;307.50;2304.00
16491;DHT22;8356;51.214;3.270;2023-02-04T03:17:50;307.50;2304.00
16491;DHT22;8356;51.214;3.270;2023-02-04T03:20:23;307.50;2304.00
16491;DHT22;8356;51.214;3.270;2023-02-04T03:22:49;307.50;2304.00
16491;DHT22;8356;51.214;3.270;2023-02-04T03:25:15;307.60;2304.00
16491;DHT22;8356;51.214;3.270;2023-02-04T03:27:41;307.60;2304.00
16491;DHT22;8356;51.214;3.270;2023-02-04T03:30:07;307.50;2304.00
16491;DHT22;8356;51.214;3.270;2023-02-04T03:32:33;307.50;2304.00
16491;DHT22;8356;51.214;3.270;2023-02-04T03:34:59;307.60;2304.00
16491;DHT22;8356;51.214;3.270;2023-02-04T03:37:25;307.60;2304.00
16491;DHT22;8356;51.214;3.270;2023-02-04T03:39:50;307.60;2304.00
16491;DHT22;8356;51.214;3.270;2023-02-04T03:42:16;307.70;2304.00
16491;DHT22;8356;51.214;3.270;2023-02-04T03:44:42;307.70;2304.00
16491;DHT22;8356;51.214;3.270;2023-02-04T03:47:08;307.70;2304.00
16491;DHT22;8356;51.214;3.270;2023-02-04T03:49:33;307.90;2304.00
16491;DHT22;8356;51.214;3.270;2023-02-04T03:52:01;307.90;2304.00
16491;DHT22;8356;51.214;3.270;2023-02-04T03:54:27;307.90;2304.00
16491;DHT22;8356;51.214;3.270;2023-02-04T03:56:53;307.90;2304.00
16491;DHT22;8356;51.214;3.270;2023-02-04T03:59:18;307.90;2304.00
16491;DHT22;8356;51.214;3.270;2023-02-04T04:01:44;307.90;2304.00
16491;DHT22;8356;51.214;3.270;2023-02-04T04:04:10;307.80;2304.00
16491;DHT22;8356;51.214;3.270;2023-02-04T04:06:35;307.90;2304.00
16491;DHT22;8356;51.214;3.270;2023-02-04T04:09:01;307.90;2304.00
16491;DHT22;8356;51.214;3.270;2023-02-04T04:11:26;307.90;2304.00
16491;DHT22;8356;51.214;3.270;2023-02-04T04:13:52;307.80;2304.00
16491;DHT22;8356;51.214;3.270;2023-02-04T04:16:18;307.70;2304.00
16491;DHT22;8356;51.214;3.270;2023-02-04T04:18:45;307.60;2304.00
16491;DHT22;8356;51.214;3.270;2023-02-04T04:21:10;307.60;2304.00
16491;DHT22;8356;51.214;3.270;2023-02-04T04:23:36;307.60;2304.00
16491;DHT22;8356;51.214;3.270;2023-02-04T04:26:02;307.60;2304.00
16491;DHT22;8356;51.214;3.270;2023-02-04T04:28:28;307.50;2304.00
16491;DHT22;8356;51.214;3.270;2023-02-04T04:30:53;307.60;2304.00
16491;DHT22;8356;51.214;3.270;2023-02-04T04:33:19;307.60;2304.00
16491;DHT22;8356;51.214;3.270;2023-02-04T04:35:45;307.50;2304.00
16491;DHT22;8356;51.214;3.270;2023-02-04T04:38:10;307.60;2304.00
16491;DHT22;8356;51.214;3.270;2023-02-04T04:40:36;307.60;2304.00
16491;DHT22;8356;51.214;3.270;2023-02-04T04:43:02;307.60;2304.00
16491;DHT22;8356;51.214;3.270;2023-02-04T04:45:28;307.50;2304.00
16491;DHT22;8356;51.214;3.270;2023-02-04T04:47:54;307.60;2304.00
16491;DHT22;8356;51.214;3.270;2023-02-04T04:50:20;307.60;2304.00
16491;DHT22;8356;51.214;3.270;2023-02-04T04:52:46;307.60;2304.00
16491;DHT22;8356;51.214;3.270;2023-02-04T04:55:12;307.60;2304.00
16491;DHT22;8356;51.214;3.270;2023-02-04T04:57:37;307.50;2304.00
16491;DHT22;8356;51.214;3.270;2023-02-04T05:00:04;307.50;2304.00
16491;DHT22;8356;51.214;3.270;2023-02-04T05:02:30;307.50;2304.00
16491;DHT22;8356;51.214;3.270;2023-02-04T05:04:56;307.50;2304.00
16491;DHT22;8356;51.214;3.270;2023-02-04T05:07:21;307.50;2304.00
16491;DHT22;8356;51.214;3.270;2023-02-04T05:09:47;307.50;2304.00
16491;DHT22;8356;51.214;3.270;2023-02-04T05:12:13;307.40;2304.00
16491;DHT22;8356;51.214;3.270;2023-02-04T05:14:38;307.40;2304.00
16491;DHT22;8356;51.214;3.270;2023-02-04T05:17:04;307.40;2304.00
16491;DHT22;8356;51.214;3.270;2023-02-04T05:19:30;307.40;2304.00
16491;DHT22;8356;51.214;3.270;2023-02-04T05:21:55;307.40;2304.00
16491;DHT22;8356;51.214;3.270;2023-02-04T05:24:22;307.40;2304.00
16491;DHT22;8356;51.214;3.270;2023-02-04T05:26:47;307.30;2304.00
16491;DHT22;8356;51.214;3.270;2023-02-04T05:29:13;307.40;2304.00
16491;DHT22;8356;51.214;3.270;2023-02-04T05:31:39;307.50;2304.00
16491;DHT22;8356;51.214;3.270;2023-02-04T05:34:04;307.40;2304.00
16491;DHT22;8356;51.214;3.270;2023-02-04T05:36:30;307.50;2304.00
16491;DHT22;8356;51.214;3.270;2023-02-04T05:38:55;307.50;2304.00
16491;DHT22;8356;51.214;3.270;2023-02-04T05:41:21;307.60;2304.00
16491;DHT22;8356;51.214;3.270;2023-02-04T05:43:47;307.60;2304.00
16491;DHT22;8356;51.214;3.270;2023-02-04T05:46:12;307.60;2304.00
16491;DHT22;8356;51.214;3.270;2023-02-04T05:48:38;307.60;2304.00
16491;DHT22;8356;51.214;3.270;2023-02-04T05:51:04;307.60;2304.00
16491;DHT22;8356;51.214;3.270;2023-02-04T05:53:30;307.80;2304.00
16491;DHT22;8356;51.214;3.270;2023-02-04T05:55:56;307.80;2304.00
16491;DHT22;8356;51.214;3.270;2023-02-04T05:58:22;307.80;2304.00
16491;DHT22;8356;51.214;3.270;2023-02-04T06:00:47;307.80;2304.00
16491;DHT22;8356;51.214;3.270;2023-02-04T06:03:13;307.70;2304.00
16491;DHT22;8356;51.214;3.270;2023-02-04T06:05:39;307.80;2304.00
16491;DHT22;8356;51.214;3.270;2023-02-04T06:08:05;307.90;2304.00
16491;DHT22;8356;51.214;3.270;2023-02-04T06:10:30;307.90;2304.00
16491;DHT22;8356;51.214;3.270;2023-02-04T06:12:56;307.80;2304.00
16491;DHT22;8356;51.214;3.270;2023-02-04T06:15:22;307.80;2304.00
16491;DHT22;8356;51.214;3.270;2023-02-04T06:17:47;307.80;2304.00
16491;DHT22;8356;51.214;3.270;2023-02-04T06:20:14;307.90;2304.00
16491;DHT22;8356;51.214;3.270;2023-02-04T06:22:40;307.80;2304.00
16491;DHT22;8356;51.214;3.270;2023-02-04T06:25:06;307.90;2304.00
16491;DHT22;8356;51.214;3.270;2023-02-04T06:27:31;307.90;2304.00
16491;DHT22;8356;51.214;3.270;2023-02-04T06:29:57;307.90;2304.00
16491;DHT22;8356;51.214;3.270;2023-02-04T06:32:23;307.80;2304.00
16491;DHT22;8356;51.214;3.270;2023-02-04T06:34:49;307.90;2304.00
16491;DHT22;8356;51.214;3.270;2023-02-04T06:37:14;308.00;2304.00
16491;DHT22;8356;51.214;3.270;2023-02-04T06:39:42;307.80;2304.00
16491;DHT22;8356;51.214;3.270;2023-02-04T06:42:08;282.50;2278.40
16491;DHT22;8356;51.214;3.270;2023-02-04T06:44:33;307.90;2304.00
16491;DHT22;8356;51.214;3.270;2023-02-04T06:46:59;307.80;2304.00
16491;DHT22;8356;51.214;3.270;2023-02-04T06:49:25;307.80;2304.00
16491;DHT22;8356;51.214;3.270;2023-02-04T06:51:51;307.80;2304.00
16491;DHT22;8356;51.214;3.270;2023-02-04T06:54:16;307.80;2304.00
16491;DHT22;8356;51.214;3.270;2023-02-04T06:56:42;307.70;2304.00
16491;DHT22;8356;51.214;3.270;2023-02-04T06:59:09;307.60;2304.00
16491;DHT22;8356;51.214;3.270;2023-02-04T07:01:35;307.60;2304.00
16491;DHT22;8356;51.214;3.270;2023-02-04T07:04:00;307.50;2304.00
16491;DHT22;8356;51.214;3.270;2023-02-04T07:06:26;307.40;2304.00
16491;DHT22;8356;51.214;3.270;2023-02-04T07:08:52;307.30;2304.00
16491;DHT22;8356;51.214;3.270;2023-02-04T07:11:18;307.30;2304.00
16491;DHT22;8356;51.214;3.270;2023-02-04T07:13:43;307.20;2304.00
16491;DHT22;8356;51.214;3.270;2023-02-04T07:16:09;307.20;2304.00
16491;DHT22;8356;51.214;3.270;2023-02-04T07:18:35;307.20;2304.00
16491;DHT22;8356;51.214;3.270;2023-02-04T07:21:00;307.20;2304.00
16491;DHT22;8356;51.214;3.270;2023-02-04T07:23:26;307.30;2304.00
16491;DHT22;8356;51.214;3.270;2023-02-04T07:25:53;307.40;2304.00
16491;DHT22;8356;51.214;3.270;2023-02-04T07:28:20;307.40;2304.00
16491;DHT22;8356;51.214;3.270;2023-02-04T07:30:46;307.40;2304.00
16491;DHT22;8356;51.214;3.270;2023-02-04T07:33:12;307.40;2304.00
16491;DHT22;8356;51.214;3.270;2023-02-04T07:35:37;307.30;2304.00
16491;DHT22;8356;51.214;3.270;2023-02-04T07:38:04;307.30;2304.00
16491;DHT22;8356;51.214;3.270;2023-02-04T07:40:29;307.30;2304.00
16491;DHT22;8356;51.214;3.270;2023-02-04T07:42:55;307.40;2304.00
16491;DHT22;8356;51.214;3.270;2023-02-04T07:45:21;307.30;2304.00
16491;DHT22;8356;51.214;3.270;2023-02-04T07:47:46;307.30;2304.00
16491;DHT22;8356;51.214;3.270;2023-02-04T07:50:12;307.40;2304.00
16491;DHT22;8356;51.214;3.270;2023-02-04T07:52:38;307.40;2304.00
16491;DHT22;8356;51.214;3.270;2023-02-04T07:55:04;307.30;2304.00
16491;DHT22;8356;51.214;3.270;2023-02-04T07:57:30;281.80;2278.40
16491;DHT22;8356;51.214;3.270;2023-02-04T07:59:56;307.20;2304.00
16491;DHT22;8356;51.214;3.270;2023-02-04T08:02:22;307.20;2304.00
16491;DHT22;8356;51.214;3.270;2023-02-04T08:04:47;307.20;2304.00
16491;DHT22;8356;51.214;3.270;2023-02-04T08:07:13;307.20;2304.00
16491;DHT22;8356;51.214;3.270;2023-02-04T08:09:39;307.20;2304.00
16491;DHT22;8356;51.214;3.270;2023-02-04T08:12:04;282.50;2278.40
16491;DHT22;8356;51.214;3.270;2023-02-04T08:14:30;307.30;2304.00
16491;DHT22;8356;51.214;3.270;2023-02-04T08:16:56;307.30;2304.00
16491;DHT22;8356;51.214;3.270;2023-02-04T08:19:22;307.40;2304.00
16491;DHT22;8356;51.214;3.270;2023-02-04T08:21:47;307.40;2304.00
16491;DHT22;8356;51.214;3.270;2023-02-04T08:24:14;307.30;2304.00
16491;DHT22;8356;51.214;3.270;2023-02-04T08:26:41;307.60;2304.00
16491;DHT22;8356;51.214;3.270;2023-02-04T08:29:07;307.40;2304.00
16491;DHT22;8356;51.214;3.270;2023-02-04T08:31:34;307.40;2304.00
16491;DHT22;8356;51.214;3.270;2023-02-04T08:34:01;307.50;2304.00
16491;DHT22;8356;51.214;3.270;2023-02-04T08:36:26;307.50;2304.00
16491;DHT22;8356;51.214;3.270;2023-02-04T08:38:52;307.50;2304.00
16491;DHT22;8356;51.214;3.270;2023-02-04T08:41:18;307.50;2304.00
16491;DHT22;8356;51.214;3.270;2023-02-04T08:43:43;307.50;2304.00
16491;DHT22;8356;51.214;3.270;2023-02-04T08:46:09;307.50;2304.00
16491;DHT22;8356;51.214;3.270;2023-02-04T08:48:35;307.50;2304.00
16491;DHT22;8356;51.214;3.270;2023-02-04T08:51:00;307.50;2304.00
16491;DHT22;8356;51.214;3.270;2023-02-04T08:53:26;307.50;2304.00
16491;DHT22;8356;51.214;3.270;2023-02-04T08:55:52;307.40;2304.00
16491;DHT22;8356;51.214;3.270;2023-02-04T08:58:17;307.20;2304.00
16491;DHT22;8356;51.214;3.270;2023-02-04T09:00:43;307.40;2304.00
16491;DHT22;8356;51.214;3.270;2023-02-04T09:03:09;307.40;2304.00
16491;DHT22;8356;51.214;3.270;2023-02-04T09:05:34;307.50;2304.00
16491;DHT22;8356;51.214;3.270;2023-02-04T09:08:00;307.50;2304.00
16491;DHT22;8356;51.214;3.270;2023-02-04T09:10:25;307.50;2304.00
16491;DHT22;8356;51.214;3.270;2023-02-04T09:12:51;307.60;2304.00
16491;DHT22;8356;51.214;3.270;2023-02-04T09:15:24;307.60;2304.00
16491;DHT22;8356;51.214;3.270;2023-02-04T09:17:50;307.70;2304.00
16491;DHT22;8356;51.214;3.270;2023-02-04T09:20:18;307.70;2304.00
16491;DHT22;8356;51.214;3.270;2023-02-04T09:22:44;307.70;2304.00
16491;DHT22;8356;51.214;3.270;2023-02-04T09:25:09;307.70;2304.00
16491;DHT22;8356;51.214;3.270;2023-02-04T09:27:35;307.70;2304.00
16491;DHT22;8356;51.214;3.270;2023-02-04T09:30:01;307.80;2304.00
16491;DHT22;8356;51.214;3.270;2023-02-04T09:32:26;307.80;2304.00
16491;DHT22;8356;51.214;3.270;2023-02-04T09:34:52;307.90;2304.00
16491;DHT22;8356;51.214;3.270;2023-02-04T09:37:17;307.90;2304.00
16491;DHT22;8356;51.214;3.270;2023-02-04T09:39:43;307.90;2304.00
16491;DHT22;8356;51.214;3.270;2023-02-04T09:42:13;307.90;2304.00
16491;DHT22;8356;51.214;3.270;2023-02-04T09:44:39;308.10;2304.00
16491;DHT22;8356;51.214;3.270;2023-02-04T09:47:05;308.10;2304.00
16491;DHT22;8356;51.214;3.270;2023-02-04T09:49:31;308.10;2304.00
16491;DHT22;8356;51.214;3.270;2023-02-04T09:51:56;308.00;2304.00
16491;DHT22;8356;51.214;3.270;2023-02-04T09:54:23;308.10;2304.00
16491;DHT22;8356;51.214;3.270;2023-02-04T09:56:50;332.90;2329.60
16491;DHT22;8356;51.214;3.270;2023-02-04T09:59:19;332.80;2329.60
16491;DHT22;8356;51.214;3.270;2023-02-04T10:01:58;332.80;2329.60
16491;DHT22;8356;51.214;3.270;2023-02-04T10:04:25;308.10;2304.00
16491;DHT22;8356;51.214;3.270;2023-02-04T10:06:50;332.80;2329.60
16491;DHT22;8356;51.214;3.270;2023-02-04T10:09:17;332.90;2329.60
16491;DHT22;8356;51.214;3.270;2023-02-04T10:11:44;332.90;2329.60
16491;DHT22;8356;51.214;3.270;2023-02-04T10:14:14;333.00;2329.60
16491;DHT22;8356;51.214;3.270;2023-02-04T10:16:41;333.00;2329.60
16491;DHT22;8356;51.214;3.270;2023-02-04T10:19:14;333.10;2329.60
16491;DHT22;8356;51.214;3.270;2023-02-04T10:21:41;333.20;2329.60
16491;DHT22;8356;51.214;3.270;2023-02-04T10:24:15;333.20;2329.60
16491;DHT22;8356;51.214;3.270;2023-02-04T10:26:41;333.20;2329.60
16491;DHT22;8356;51.214;3.270;2023-02-04T10:29:16;333.10;2329.60
16491;DHT22;8356;51.214;3.270;2023-02-04T10:31:44;333.00;2329.60
16491;DHT22;8356;51.214;3.270;2023-02-04T10:34:15;333.10;2329.60
16491;DHT22;8356;51.214;3.270;2023-02-04T10:36:43;333.20;2329.60
16491;DHT22;8356;51.214;3.270;2023-02-04T10:39:17;333.10;2329.60
16491;DHT22;8356;51.214;3.270;2023-02-04T10:41:45;333.00;2329.60
16491;DHT22;8356;51.214;3.270;2023-02-04T10:44:13;333.00;2329.60
16491;DHT22;8356;51.214;3.270;2023-02-04T10:46:39;332.90;2329.60
16491;DHT22;8356;51.214;3.270;2023-02-04T10:49:20;332.90;2329.60
16491;DHT22;8356;51.214;3.270;2023-02-04T10:51:47;332.90;2329.60
16491;DHT22;8356;51.214;3.270;2023-02-04T10:54:13;332.90;2329.60
16491;DHT22;8356;51.214;3.270;2023-02-04T10:56:59;332.90;2329.60
16491;DHT22;8356;51.214;3.270;2023-02-04T10:59:27;332.90;2329.60
16491;DHT22;8356;51.214;3.270;2023-02-04T11:01:58;333.00;2329.60
16491;DHT22;8356;51.214;3.270;2023-02-04T11:04:25;333.00;2329.60
16491;DHT22;8356;51.214;3.270;2023-02-04T11:06:51;333.00;2329.60
16491;DHT22;8356;51.214;3.270;2023-02-04T11:09:17;333.00;2329.60
16491;DHT22;8356;51.214;3.270;2023-02-04T11:11:50;333.40;2329.60
16491;DHT22;8356;51.214;3.270;2023-02-04T11:14:27;333.10;2329.60
16491;DHT22;8356;51.214;3.270;2023-02-04T11:16:54;333.10;2329.60
16491;DHT22;8356;51.214;3.270;2023-02-04T11:19:37;333.10;2329.60
16491;DHT22;8356;51.214;3.270;2023-02-04T11:22:23;333.10;2329.60
16491;DHT22;8356;51.214;3.270;2023-02-04T11:24:50;333.10;2329.60
16491;DHT22;8356;51.214;3.270;2023-02-04T11:27:24;333.20;2329.60
16491;DHT22;8356;51.214;3.270;2023-02-04T11:29:51;333.30;2329.60
16491;DHT22;8356;51.214;3.270;2023-02-04T11:32:34;333.30;2329.60
16491;DHT22;8356;51.214;3.270;2023-02-04T11:35:16;333.40;2329.60
16491;DHT22;8356;51.214;3.270;2023-02-04T11:37:44;333.50;2329.60
16491;DHT22;8356;51.214;3.270;2023-02-04T11:43:00;333.50;2329.60
16491;DHT22;8356;51.214;3.270;2023-02-04T11:45:34;333.50;2329.60
16491;DHT22;8356;51.214;3.270;2023-02-04T11:48:03;358.60;2329.60
16491;DHT22;8356;51.214;3.270;2023-02-04T11:50:34;333.60;2329.60
16491;DHT22;8356;51.214;3.270;2023-02-04T11:53:03;333.60;2329.60
16491;DHT22;8356;51.214;3.270;2023-02-04T11:55:33;333.60;2329.60
16491;DHT22;8356;51.214;3.270;2023-02-04T11:57:59;333.70;2329.60
16491;DHT22;8356;51.214;3.270;2023-02-04T12:00:28;333.70;2329.60
16491;DHT22;8356;51.214;3.270;2023-02-04T12:02:57;333.50;2329.60
16491;DHT22;8356;51.214;3.270;2023-02-04T12:05:37;333.50;2329.60
16491;DHT22;8356;51.214;3.270;2023-02-04T12:10:59;358.40;2329.60
16491;DHT22;8356;51.214;3.270;2023-02-04T12:13:26;358.50;2329.60
16491;DHT22;8356;51.214;3.270;2023-02-04T12:15:59;358.60;2329.60
16491;DHT22;8356;51.214;3.270;2023-02-04T12:18:25;358.60;2329.60
16491;DHT22;8356;51.214;3.270;2023-02-04T12:20:55;358.50;2329.60
16491;DHT22;8356;51.214;3.270;2023-02-04T12:23:22;358.40;2329.60
16491;DHT22;8356;51.214;3.270;2023-02-04T12:25:48;359.00;2329.60
16491;DHT22;8356;51.214;3.270;2023-02-04T12:28:14;333.70;2329.60
16491;DHT22;8356;51.214;3.270;2023-02-04T12:30:40;358.40;2329.60
16491;DHT22;8356;51.214;3.270;2023-02-04T12:33:06;358.50;2329.60
16491;DHT22;8356;51.214;3.270;2023-02-04T12:35:32;358.60;2329.60
16491;DHT22;8356;51.214;3.270;2023-02-04T12:37:58;358.40;2329.60
16491;DHT22;8356;51.214;3.270;2023-02-04T12:40:24;358.40;2329.60
16491;DHT22;8356;51.214;3.270;2023-02-04T12:42:50;333.70;2329.60
16491;DHT22;8356;51.214;3.270;2023-02-04T12:45:16;333.60;2329.60
16491;DHT22;8356;51.214;3.270;2023-02-04T12:47:43;358.50;2329.60
16491;DHT22;8356;51.214;3.270;2023-02-04T12:50:11;358.50;2329.60
16491;DHT22;8356;51.214;3.270;2023-02-04T12:52:37;358.50;2329.60
16491;DHT22;8356;51.214;3.270;2023-02-04T12:55:04;333.70;2329.60
16491;DHT22;8356;51.214;3.270;2023-02-04T12:57:31;358.40;2329.60
16491;DHT22;8356;51.214;3.270;2023-02-04T12:59:57;333.70;2329.60
16491;DHT22;8356;51.214;3.270;2023-02-04T13:02:25;333.70;2329.60
16491;DHT22;8356;51.214;3.270;2023-02-04T13:04:51;333.70;2329.60
16491;DHT22;8356;51.214;3.270;2023-02-04T13:07:17;358.40;2329.60
16491;DHT22;8356;51.214;3.270;2023-02-04T13:09:42;358.40;2329.60
16491;DHT22;8356;51.214;3.270;2023-02-04T13:12:10;333.70;2329.60
16491;DHT22;8356;51.214;3.270;2023-02-04T13:14:38;333.60;2329.60
16491;DHT22;8356;51.214;3.270;2023-02-04T13:17:05;333.50;2329.60
16491;DHT22;8356;51.214;3.270;2023-02-04T13:19:30;332.80;2329.60
16491;DHT22;8356;51.214;3.270;2023-02-04T13:21:57;358.40;2329.60
16491;DHT22;8356;51.214;3.270;2023-02-04T13:24:23;333.50;2329.60
16491;DHT22;8356;51.214;3.270;2023-02-04T13:26:49;333.50;2329.60
16491;DHT22;8356;51.214;3.270;2023-02-04T13:29:15;333.70;2329.60
16491;DHT22;8356;51.214;3.270;2023-02-04T13:31:40;333.70;2329.60
16491;DHT22;8356;51.214;3.270;2023-02-04T13:34:06;333.70;2329.60
16491;DHT22;8356;51.214;3.270;2023-02-04T13:36:32;333.60;2329.60
16491;DHT22;8356;51.214;3.270;2023-02-04T13:38:58;333.70;2329.60
16491;DHT22;8356;51.214;3.270;2023-02-04T13:41:26;358.50;2329.60
16491;DHT22;8356;51.214;3.270;2023-02-04T13:43:52;358.60;2329.60
16491;DHT22;8356;51.214;3.270;2023-02-04T13:46:18;358.50;2329.60
16491;DHT22;8356;51.214;3.270;2023-02-04T13:48:43;358.40;2329.60
16491;DHT22;8356;51.214;3.270;2023-02-04T13:51:09;333.70;2329.60
16491;DHT22;8356;51.214;3.270;2023-02-04T13:53:34;358.40;2329.60
16491;DHT22;8356;51.214;3.270;2023-02-04T13:56:00;358.40;2329.60
16491;DHT22;8356;51.214;3.270;2023-02-04T13:58:26;333.70;2329.60
16491;DHT22;8356;51.214;3.270;2023-02-04T14:00:52;333.70;2329.60
16491;DHT22;8356;51.214;3.270;2023-02-04T14:03:23;358.50;2329.60
16491;DHT22;8356;51.214;3.270;2023-02-04T14:05:49;358.40;2329.60
16491;DHT22;8356;51.214;3.270;2023-02-04T14:08:15;333.50;2329.60
16491;DHT22;8356;51.214;3.270;2023-02-04T14:10:40;358.40;2329.60
16491;DHT22;8356;51.214;3.270;2023-02-04T14:13:06;358.60;2329.60
16491;DHT22;8356;51.214;3.270;2023-02-04T14:15:32;358.50;2329.60
16491;DHT22;8356;51.214;3.270;2023-02-04T14:17:59;358.50;2329.60
16491;DHT22;8356;51.214;3.270;2023-02-04T14:20:25;333.70;2329.60
16491;DHT22;8356;51.214;3.270;2023-02-04T14:22:51;333.60;2329.60
16491;DHT22;8356;51.214;3.270;2023-02-04T14:25:17;333.50;2329.60
16491;DHT22;8356;51.214;3.270;2023-02-04T14:27:42;333.60;2329.60
16491;DHT22;8356;51.214;3.270;2023-02-04T14:30:19;333.50;2329.60
16491;DHT22;8356;51.214;3.270;2023-02-04T14:32:45;333.50;2329.60
16491;DHT22;8356;51.214;3.270;2023-02-04T14:35:11;333.50;2329.60
16491;DHT22;8356;51.214;3.270;2023-02-04T14:37:37;333.60;2329.60
16491;DHT22;8356;51.214;3.270;2023-02-04T14:40:03;333.60;2329.60
16491;DHT22;8356;51.214;3.270;2023-02-04T14:42:29;333.70;2329.60
16491;DHT22;8356;51.214;3.270;2023-02-04T14:44:55;333.70;2329.60
16491;DHT22;8356;51.214;3.270;2023-02-04T14:47:21;358.40;2329.60
16491;DHT22;8356;51.214;3.270;2023-02-04T14:49:47;333.70;2329.60
16491;DHT22;8356;51.214;3.270;2023-02-04T14:52:13;333.60;2329.60
16491;DHT22;8356;51.214;3.270;2023-02-04T14:54:39;333.70;2329.60
16491;DHT22;8356;51.214;3.270;2023-02-04T14:57:05;333.40;2329.60
16491;DHT22;8356;51.214;3.270;2023-02-04T14:59:31;358.40;2329.60
16491;DHT22;8356;51.214;3.270;2023-02-04T15:01:56;333.70;2329.60
16491;DHT22;8356;51.214;3.270;2023-02-04T15:04:22;333.70;2329.60
16491;DHT22;8356;51.214;3.270;2023-02-04T15:06:48;333.50;2329.60
16491;DHT22;8356;51.214;3.270;2023-02-04T15:09:18;333.50;2329.60